Time;durP1;ratioP1;P1;durP2;ratioP2;P2;SDS_P1;SDS_P2;PMS_P1;PMS_P2;Temp;Humidity;BMP_temperature;BMP_pressure;BME280_temperature;BME280_humidity;BME280_pressure;Samples;Min_cycle;Max_cycle;Signal;HPM_P1;HPM_P2
2023/12/19 00:01:46;;;;;;;32.90;16.30;;;;;;;2.23;90.82;101235.13;105197;1257;71450;-58
2023/12/19 00:04:14;;;;;;;237.30;84.00;;;;;;;2.18;90.77;101238.18;105180;1258;69204;-58
2023/12/19 00:06:43;;;;;;;148.80;49.90;;;;;;;2.16;91.03;101235.91;105214;1260;69198;-58
2023/12/19 00:09:12;;;;;;;96.30;35.20;;;;;;;2.14;90.79;101229.52;105149;1258;73888;-58
2023/12/19 00:11:40;;;;;;;42.10;21.80;;;;;;;2.13;91.20;101226.40;105186;1260;81163;-59
2023/12/19 00:14:08;;;;;;;43.60;19.50;;;;;;;2.12;91.28;101223.11;105114;1261;72411;-58
2023/12/19 00:16:37;;;;;;;33.30;17.10;;;;;;;2.14;91.17;101228.31;105124;1258;69317;-58
2023/12/19 00:19:07;;;;;;;16.90;9.50;;;;;;;2.24;91.20;101225.82;105273;1260;69193;-59
2023/12/19 00:21:36;;;;;;;16.10;7.90;;;;;;;2.44;91.68;101226.02;105150;1260;72083;-59
2023/12/19 00:24:04;;;;;;;12.70;6.70;;;;;;;2.65;91.92;101218.98;105134;1261;81751;-59
2023/12/19 00:26:32;;;;;;;12.90;6.00;;;;;;;2.98;91.96;101209.55;105136;1260;71002;-58
2023/12/19 00:29:00;;;;;;;8.70;4.00;;;;;;;3.25;91.58;101213.02;105110;1261;69034;-58
2023/12/19 00:31:28;;;;;;;7.30;3.30;;;;;;;3.68;91.67;101216.17;105122;1260;69177;-58
2023/12/19 00:33:57;;;;;;;6.90;3.30;;;;;;;4.10;91.40;101212.33;105180;1258;74200;-59
2023/12/19 00:36:25;;;;;;;5.30;3.50;;;;;;;4.51;91.00;101213.11;105133;1260;81591;-58
2023/12/19 00:38:54;;;;;;;5.40;3.00;;;;;;;4.96;90.68;101213.61;105139;1258;71710;-59
2023/12/19 00:41:22;;;;;;;6.60;3.00;;;;;;;5.37;89.80;101202.80;105189;1260;69074;-59
2023/12/19 00:43:50;;;;;;;6.40;3.10;;;;;;;5.65;88.56;101190.56;105108;1261;69193;-59
2023/12/19 00:46:18;;;;;;;4.70;2.90;;;;;;;5.89;88.15;101187.17;105171;1258;74057;-59
2023/12/19 00:48:47;;;;;;;6.00;3.20;;;;;;;6.15;87.25;101180.45;105139;1260;82888;-59
2023/12/19 00:51:15;;;;;;;4.00;2.40;;;;;;;6.38;86.27;101183.60;105117;1257;73044;-59
2023/12/19 00:53:43;;;;;;;5.40;2.90;;;;;;;6.51;85.69;101193.39;105145;1259;69278;-59
2023/12/19 00:56:12;;;;;;;6.40;3.00;;;;;;;6.67;84.88;101202.13;105141;1260;69199;-59
2023/12/19 00:58:40;;;;;;;6.70;3.40;;;;;;;6.83;84.31;101193.30;105173;1261;75018;-59
2023/12/19 01:01:08;;;;;;;5.90;2.80;;;;;;;6.97;83.32;101185.88;105153;1258;81704;-59
2023/12/19 01:03:37;;;;;;;5.40;2.80;;;;;;;7.03;82.49;101188.77;105085;1260;73159;-59
2023/12/19 01:06:06;;;;;;;6.20;2.80;;;;;;;7.07;81.80;101188.20;105237;1257;69128;-59
2023/12/19 01:08:34;;;;;;;3.50;2.50;;;;;;;7.12;81.36;101188.86;105125;1260;69277;-59
2023/12/19 01:11:03;;;;;;;5.00;2.20;;;;;;;7.20;81.21;101189.30;105158;1258;73326;-59
2023/12/19 01:13:31;;;;;;;5.70;3.40;;;;;;;7.22;80.54;101188.77;105158;1257;81444;-59
2023/12/19 01:15:59;;;;;;;4.20;2.70;;;;;;;7.23;80.29;101216.38;105111;1260;71779;-59
2023/12/19 01:18:28;;;;;;;3.90;2.20;;;;;;;7.35;80.35;101206.18;105127;1260;69199;-59
2023/12/19 01:20:56;;;;;;;3.80;2.70;;;;;;;7.46;78.95;101183.63;105229;1261;70523;-59
2023/12/19 01:23:25;;;;;;;6.00;2.40;;;;;;;7.52;78.88;101178.86;105176;1257;74208;-59
2023/12/19 01:25:53;;;;;;;3.80;2.60;;;;;;;7.60;78.15;101169.55;105191;1260;82822;-59
2023/12/19 01:28:22;;;;;;;4.80;3.10;;;;;;;7.66;77.58;101160.42;105173;1257;72095;-59
2023/12/19 01:30:50;;;;;;;5.40;2.70;;;;;;;7.70;77.54;101160.72;105126;1258;69139;-59
2023/12/19 01:33:18;;;;;;;5.50;2.50;;;;;;;7.76;76.72;101160.45;105142;1258;69168;-59
2023/12/19 01:35:47;;;;;;;4.10;2.50;;;;;;;7.78;76.11;101157.11;105146;1257;74194;-59
2023/12/19 01:38:15;;;;;;;4.20;2.70;;;;;;;7.79;75.83;101161.63;105120;1257;82742;-59
2023/12/19 01:40:43;;;;;;;5.20;2.70;;;;;;;7.83;75.32;101172.55;105126;1258;71966;-59
2023/12/19 01:43:19;;;;;;;4.10;2.40;;;;;;;7.86;74.85;101171.30;105111;1258;69195;-59
2023/12/19 01:45:49;;;;;;;3.80;2.60;;;;;;;7.88;74.45;101174.23;105163;1260;69099;-59
2023/12/19 01:48:18;;;;;;;;;;;;;;;7.85;74.10;101168.70;105157;1260;72266;-59
2023/12/19 01:50:47;;;;;;;3.80;2.40;;;;;;;7.82;73.75;101163.53;105203;1260;81406;-59
2023/12/19 01:53:16;;;;;;;4.40;2.90;;;;;;;7.83;73.44;101158.11;105246;1257;72189;-59
2023/12/19 01:55:45;;;;;;;5.60;3.10;;;;;;;7.85;73.16;101158.63;105172;1258;69146;-59
2023/12/19 01:58:13;;;;;;;4.90;2.90;;;;;;;7.89;72.91;101152.13;105152;1260;69167;-59
2023/12/19 02:00:41;;;;;;;3.60;2.60;;;;;;;7.94;72.53;101144.56;105174;1256;74108;-59
2023/12/19 02:03:10;;;;;;;4.40;2.70;;;;;;;7.96;72.25;101129.03;105134;1263;81429;-59
2023/12/19 02:05:39;;;;;;;4.80;2.60;;;;;;;7.96;71.85;101130.09;105124;1257;72261;-59
2023/12/19 02:08:07;;;;;;;8.00;3.10;;;;;;;7.97;71.66;101131.97;105189;1257;69253;-59
2023/12/19 02:10:35;;;;;;;3.70;2.60;;;;;;;7.97;71.41;101126.75;105199;1260;69218;-59
2023/12/19 02:13:04;;;;;;;5.50;2.70;;;;;;;7.99;71.03;101118.20;105147;1257;73637;-59
2023/12/19 02:15:32;;;;;;;4.80;2.90;;;;;;;8.00;70.81;101126.36;105130;1260;81583;-59
2023/12/19 02:18:18;;;;;;;5.70;2.60;;;;;;;8.01;70.69;101132.45;105098;1262;71612;-59
2023/12/19 02:20:47;;;;;;;4.30;2.60;;;;;;;8.02;70.55;101132.44;105126;1260;69167;-59
2023/12/19 02:23:16;;;;;;;3.70;2.40;;;;;;;8.04;69.81;101132.06;105218;1257;69212;-59
2023/12/19 02:25:44;;;;;;;4.90;2.60;;;;;;;8.03;69.77;101133.63;105209;1258;74262;-59
2023/12/19 02:28:12;;;;;;;4.60;2.60;;;;;;;8.03;69.46;101120.22;105125;1257;80374;-59
2023/12/19 02:30:41;;;;;;;3.50;2.60;;;;;;;8.03;69.37;101112.21;105174;1257;71912;-59
2023/12/19 02:33:11;;;;;;;4.40;2.70;;;;;;;8.02;68.82;101111.88;105164;1260;69141;-59
2023/12/19 02:35:40;;;;;;;3.80;2.20;;;;;;;8.04;68.68;101105.95;105179;1260;69137;-59
2023/12/19 02:38:08;;;;;;;4.20;2.40;;;;;;;8.04;68.28;101095.33;105222;1258;74040;-59
2023/12/19 02:40:36;;;;;;;3.60;2.20;;;;;;;8.04;68.14;101096.72;105136;1258;81755;-59
2023/12/19 02:43:04;;;;;;;3.90;1.90;;;;;;;8.07;67.73;101102.77;105106;1260;71780;-59
2023/12/19 02:45:34;;;;;;;4.30;2.60;;;;;;;8.08;67.60;101103.61;105141;1258;69138;-59
2023/12/19 02:48:03;;;;;;;4.10;2.20;;;;;;;8.12;67.04;101101.47;105165;1256;69186;-59
2023/12/19 02:50:31;;;;;;;4.70;2.40;;;;;;;8.11;66.59;101097.66;105218;1260;73544;-59
2023/12/19 02:52:59;;;;;;;4.20;2.40;;;;;;;8.08;66.51;101091.08;105187;1260;81491;-59
2023/12/19 02:55:28;;;;;;;4.30;2.60;;;;;;;8.05;66.18;101092.35;105127;1257;71875;-59
2023/12/19 02:57:58;;;;;;;4.70;2.30;;;;;;;8.01;66.04;101082.84;105169;1261;69132;-59
2023/12/19 03:00:26;;;;;;;4.00;2.10;;;;;;;8.00;66.00;101072.77;105180;1260;69190;-59
2023/12/19 03:02:58;;;;;;;4.10;1.80;;;;;;;7.99;65.55;101066.69;105212;1257;75669;-59
2023/12/19 03:05:27;;;;;;;3.10;2.00;;;;;;;7.98;65.42;101082.89;105145;1257;81761;-59
2023/12/19 03:07:56;;;;;;;3.80;2.20;;;;;;;7.96;65.09;101076.84;105189;1260;70763;-59
2023/12/19 03:10:24;;;;;;;4.40;2.50;;;;;;;7.95;64.67;101073.88;105154;1256;69091;-59
2023/12/19 03:12:52;;;;;;;3.60;1.70;;;;;;;7.95;64.57;101073.37;105174;1261;69209;-59
2023/12/19 03:15:21;;;;;;;3.90;2.00;;;;;;;7.93;64.36;101072.53;105138;1257;73741;-59
2023/12/19 03:17:50;;;;;;;3.50;2.20;;;;;;;7.95;64.29;101086.42;105202;1260;81996;-59
2023/12/19 03:20:18;;;;;;;5.70;3.00;;;;;;;7.97;63.83;101099.60;105226;1260;72319;-59
2023/12/19 03:22:46;;;;;;;3.90;2.70;;;;;;;7.97;63.79;101099.62;105146;1257;69176;-59
2023/12/19 03:25:15;;;;;;;3.20;2.00;;;;;;;7.94;63.57;101084.52;105158;1261;69228;-59
2023/12/19 03:27:43;;;;;;;2.90;1.90;;;;;;;7.92;63.35;101084.89;105176;1256;74313;-59
2023/12/19 03:30:11;;;;;;;4.50;2.30;;;;;;;7.93;63.12;101089.41;105129;1260;82030;-59
2023/12/19 03:32:40;;;;;;;3.20;2.10;;;;;;;7.93;63.28;101090.28;105192;1260;71971;-59
2023/12/19 03:35:11;;;;;;;3.60;2.30;;;;;;;7.93;62.17;101095.15;105142;1257;69130;-59
2023/12/19 03:37:39;;;;;;;;;;;;;;;7.96;61.90;101087.81;105194;1260;69205;-59
2023/12/19 03:40:09;;;;;;;2.70;1.90;;;;;;;7.96;61.75;101092.32;105151;1260;73034;-59
2023/12/19 03:42:37;;;;;;;3.60;2.10;;;;;;;7.96;61.26;101094.23;105169;1260;82793;-59
2023/12/19 03:45:08;;;;;;;2.60;2.00;;;;;;;7.97;60.96;101103.62;105160;1256;72356;-59
2023/12/19 03:47:37;;;;;;;3.60;2.10;;;;;;;7.95;60.87;101097.39;105239;1256;69202;-59
2023/12/19 03:50:07;;;;;;;2.70;1.90;;;;;;;7.94;60.99;101094.09;105169;1260;69286;-59
2023/12/19 03:52:35;;;;;;;3.60;2.00;;;;;;;7.90;60.72;101084.58;105158;1258;73650;-59
2023/12/19 03:55:04;;;;;;;3.20;2.10;;;;;;;7.88;60.75;101087.76;105169;1256;81718;-59
2023/12/19 03:57:33;;;;;;;3.10;1.90;;;;;;;7.88;59.76;101088.95;105165;1257;71648;-59
2023/12/19 04:00:03;;;;;;;3.60;1.80;;;;;;;7.94;59.56;101072.86;105151;1257;69502;-59
2023/12/19 04:02:35;;;;;;;3.30;2.10;;;;;;;7.95;59.97;101068.31;105152;1256;69124;-59
2023/12/19 04:05:04;;;;;;;2.50;1.70;;;;;;;7.96;59.75;101057.33;105146;1257;73992;-59
2023/12/19 04:07:32;;;;;;;3.40;2.10;;;;;;;7.97;59.89;101054.89;105186;1260;81979;-59
2023/12/19 04:10:01;;;;;;;2.90;1.50;;;;;;;7.98;59.91;101065.84;105163;1260;71838;-59
2023/12/19 04:12:29;;;;;;;2.60;1.70;;;;;;;8.02;60.04;101069.61;105148;1258;69128;-59
2023/12/19 04:14:58;;;;;;;3.00;1.80;;;;;;;8.05;59.72;101061.89;105146;1257;69171;-59
2023/12/19 04:17:26;;;;;;;3.60;1.90;;;;;;;8.09;59.37;101074.36;105120;1260;73764;-59
2023/12/19 04:19:55;;;;;;;3.00;1.80;;;;;;;8.12;59.20;101084.07;105162;1260;82854;-59
2023/12/19 04:22:23;;;;;;;2.80;1.90;;;;;;;8.11;59.21;101088.78;105174;1261;72256;-59
2023/12/19 04:24:51;;;;;;;4.20;2.00;;;;;;;8.09;58.91;101082.19;105127;1256;69154;-59
2023/12/19 04:27:20;;;;;;;3.60;1.70;;;;;;;8.08;59.25;101087.09;105221;1257;69182;-59
2023/12/19 04:29:50;;;;;;;2.60;1.80;;;;;;;8.08;59.05;101067.08;105185;1258;74980;-59
2023/12/19 04:32:18;;;;;;;3.90;1.90;;;;;;;8.08;58.72;101059.94;105168;1260;81453;-59
2023/12/19 04:34:46;;;;;;;2.80;1.90;;;;;;;8.08;59.04;101058.89;105096;1257;71212;-59
2023/12/19 04:37:14;;;;;;;4.00;1.90;;;;;;;8.08;58.90;101062.02;105165;1257;69099;-59
2023/12/19 04:39:43;;;;;;;3.10;1.90;;;;;;;8.09;58.57;101055.38;105164;1261;69185;-59
2023/12/19 04:42:17;;;;;;;4.70;2.40;;;;;;;8.11;57.56;101043.70;105204;1260;73775;-59
2023/12/19 04:44:46;;;;;;;3.40;1.70;;;;;;;8.15;57.92;101040.15;105166;1260;82690;-59
2023/12/19 04:47:15;;;;;;;2.70;1.90;;;;;;;8.15;57.83;101035.80;105165;1256;72380;-59
2023/12/19 04:49:43;;;;;;;3.70;1.80;;;;;;;8.13;58.05;101035.14;105201;1256;69211;-59
2023/12/19 04:52:12;;;;;;;3.70;2.10;;;;;;;8.12;57.73;101025.23;105111;1260;69122;-59
2023/12/19 04:54:40;;;;;;;3.40;2.10;;;;;;;8.12;57.64;101023.14;105106;1260;73996;-59
2023/12/19 04:57:08;;;;;;;3.90;1.80;;;;;;;8.11;57.61;101017.24;105139;1260;82180;-59
2023/12/19 04:59:37;;;;;;;3.10;1.90;;;;;;;8.08;57.79;101020.60;105142;1257;72240;-59
2023/12/19 05:02:05;;;;;;;3.30;2.10;;;;;;;8.06;57.22;101025.85;105105;1257;69185;-59
2023/12/19 05:04:33;;;;;;;2.20;1.60;;;;;;;8.03;57.59;101033.72;105184;1257;70198;-59
2023/12/19 05:07:02;;;;;;;4.40;2.20;;;;;;;8.02;58.05;101039.14;105165;1257;74122;-59
2023/12/19 05:09:30;;;;;;;2.80;1.80;;;;;;;8.02;57.81;101036.54;105120;1263;81568;-59
2023/12/19 05:11:58;;;;;;;3.50;2.10;;;;;;;8.03;57.72;101041.21;105120;1260;71715;-59
2023/12/19 05:14:26;;;;;;;5.30;2.50;;;;;;;8.04;57.72;101048.67;105132;1256;69177;-59
2023/12/19 05:16:55;;;;;;;3.50;1.90;;;;;;;8.08;57.51;101042.88;105136;1260;69192;-59
2023/12/19 05:19:23;;;;;;;3.10;1.90;;;;;;;8.14;57.41;101042.60;105334;1257;73641;-61
2023/12/19 05:21:51;;;;;;;2.80;1.60;;;;;;;8.17;57.35;101046.91;105184;1259;82628;-61
2023/12/19 05:24:19;;;;;;;2.40;1.80;;;;;;;8.20;57.74;101046.17;105223;1256;70248;-60
2023/12/19 05:26:47;;;;;;;3.20;1.60;;;;;;;8.22;57.26;101046.98;105162;1256;69082;-59
2023/12/19 05:29:15;;;;;;;3.60;2.10;;;;;;;8.26;57.22;101056.32;105124;1256;69234;-60
2023/12/19 05:31:43;;;;;;;3.20;1.90;;;;;;;8.28;57.22;101061.52;105124;1256;73954;-59
2023/12/19 05:34:12;;;;;;;2.60;1.50;;;;;;;8.29;57.16;101055.77;105127;1261;82525;-60
2023/12/19 05:36:46;;;;;;;4.30;1.70;;;;;;;8.29;57.04;101052.27;105155;1256;72224;-60
2023/12/19 05:39:17;;;;;;;2.70;1.90;;;;;;;8.28;57.07;101051.08;105157;1258;69122;-60
2023/12/19 05:41:45;;;;;;;4.60;1.80;;;;;;;8.26;57.29;101051.80;105147;1260;69186;-59
2023/12/19 05:44:13;;;;;;;3.00;1.80;;;;;;;8.26;56.87;101056.84;105182;1256;75526;-60
2023/12/19 05:46:42;;;;;;;2.40;1.70;;;;;;;8.27;56.68;101048.30;105138;1260;82061;-60
2023/12/19 05:49:10;;;;;;;5.20;2.60;;;;;;;8.27;56.92;101043.61;105142;1256;71575;-59
2023/12/19 05:51:39;;;;;;;2.10;1.30;;;;;;;8.28;55.95;101033.32;105144;1261;69106;-60
2023/12/19 05:54:07;;;;;;;3.20;1.70;;;;;;;8.31;56.16;101042.50;105197;1259;69221;-59
2023/12/19 05:56:36;;;;;;;2.20;1.70;;;;;;;8.30;56.36;101047.02;105137;1257;74296;-59
2023/12/19 05:59:04;;;;;;;3.00;2.10;;;;;;;8.31;56.63;101042.84;105168;1257;82710;-59
2023/12/19 06:01:32;;;;;;;2.50;1.60;;;;;;;8.29;56.41;101037.30;105110;1257;73769;-59
2023/12/19 06:04:01;;;;;;;3.80;1.70;;;;;;;8.29;56.44;101040.96;105109;1261;69154;-59
2023/12/19 06:06:29;;;;;;;3.00;1.90;;;;;;;8.30;56.25;101037.64;105194;1260;69195;-59
2023/12/19 06:08:57;;;;;;;2.70;1.70;;;;;;;8.29;56.42;101039.58;105164;1257;73850;-59
2023/12/19 06:11:26;;;;;;;4.00;1.70;;;;;;;8.28;56.66;101039.05;105160;1256;83056;-59
2023/12/19 06:13:55;;;;;;;3.20;2.00;;;;;;;8.28;56.54;101039.06;105186;1260;73073;-60
2023/12/19 06:16:23;;;;;;;3.60;2.20;;;;;;;8.28;56.70;101040.80;105129;1256;69189;-60
2023/12/19 06:18:51;;;;;;;4.20;1.80;;;;;;;8.27;56.50;101038.89;105160;1260;69192;-60
2023/12/19 06:21:20;;;;;;;2.60;1.80;;;;;;;8.27;56.46;101042.74;105271;1260;74915;-59
2023/12/19 06:23:49;;;;;;;2.20;1.60;;;;;;;8.26;56.18;101038.75;105199;1260;82746;-59
2023/12/19 06:26:17;;;;;;;3.30;1.90;;;;;;;8.26;56.11;101031.95;105181;1256;71894;-59
2023/12/19 06:28:45;;;;;;;2.90;1.70;;;;;;;8.26;56.32;101018.38;105152;1256;69167;-59
2023/12/19 06:31:13;;;;;;;4.90;2.00;;;;;;;8.24;56.40;101016.15;105099;1257;69159;-60
2023/12/19 06:33:43;;;;;;;2.60;2.00;;;;;;;8.23;56.28;101018.77;105165;1257;74002;-59
2023/12/19 06:36:27;;;;;;;2.50;1.70;;;;;;;8.23;56.32;101017.54;105170;1257;81801;-59
2023/12/19 06:38:55;;;;;;;2.80;2.20;;;;;;;8.21;56.43;101027.15;105156;1256;71883;-60
2023/12/19 06:41:23;;;;;;;3.30;2.20;;;;;;;8.21;56.43;101027.70;105137;1260;69123;-59
2023/12/19 06:43:51;;;;;;;4.40;1.90;;;;;;;8.21;56.62;101032.55;105133;1261;69155;-60
2023/12/19 06:46:20;;;;;;;3.00;1.80;;;;;;;8.21;56.71;101025.59;105090;1257;73972;-59
2023/12/19 06:48:48;;;;;;;2.90;1.90;;;;;;;8.21;56.52;101025.94;105304;1257;82246;-60
2023/12/19 06:51:26;;;;;;;2.60;1.90;;;;;;;8.21;56.49;101028.73;105108;1260;72042;-59
2023/12/19 06:53:55;;;;;;;4.50;1.80;;;;;;;8.21;56.73;101028.72;105275;1260;69144;-59
2023/12/19 06:56:28;;;;;;;2.90;1.90;;;;;;;8.21;56.73;101026.13;105203;1256;69202;-59
2023/12/19 06:58:56;;;;;;;2.60;1.80;;;;;;;8.20;56.67;101024.57;105203;1258;73360;-59
2023/12/19 07:01:25;;;;;;;2.80;1.50;;;;;;;8.22;56.56;101017.58;105148;1257;81624;-59
2023/12/19 07:03:54;;;;;;;2.10;1.80;;;;;;;8.22;56.58;101007.98;105151;1260;72244;-59
2023/12/19 07:06:23;;;;;;;3.50;1.50;;;;;;;8.22;56.78;100999.63;105130;1257;69152;-60
2023/12/19 07:08:52;;;;;;;2.10;1.60;;;;;;;8.22;56.93;101000.00;105191;1257;69079;-60
2023/12/19 07:11:21;;;;;;;5.10;1.80;;;;;;;8.21;56.89;101001.74;105167;1256;73563;-60
2023/12/19 07:13:50;;;;;;;2.40;1.50;;;;;;;8.23;56.62;100998.05;105199;1261;82799;-59
2023/12/19 07:16:19;;;;;;;3.50;1.90;;;;;;;8.24;56.85;101002.73;105142;1260;70777;-59
2023/12/19 07:18:47;;;;;;;1.80;1.40;;;;;;;8.23;57.03;101002.58;105195;1257;69770;-60
2023/12/19 07:21:29;;;;;;;2.60;1.50;;;;;;;8.23;56.71;100998.91;105136;1260;69161;-60
2023/12/19 07:23:59;;;;;;;3.00;1.60;;;;;;;8.24;56.78;101004.64;105189;1256;75010;-59
2023/12/19 07:26:29;;;;;;;2.80;1.70;;;;;;;8.25;56.60;101003.41;105121;1260;83654;-59
2023/12/19 07:28:58;;;;;;;3.50;1.80;;;;;;;8.25;56.99;100998.87;105134;1256;72010;-59
2023/12/19 07:31:28;;;;;;;2.10;1.40;;;;;;;8.25;56.81;100995.59;105194;1257;69263;-60
2023/12/19 07:34:04;;;;;;;5.80;3.00;;;;;;;8.25;57.10;100996.78;105214;1260;69170;-60
2023/12/19 07:36:33;;;;;;;5.00;3.00;;;;;;;8.25;57.18;100999.06;105156;1261;73996;-60
2023/12/19 07:39:03;;;;;;;5.20;3.70;;;;;;;8.26;56.93;100997.66;105148;1260;83077;-60
2023/12/19 07:41:32;;;;;;;4.40;2.90;;;;;;;8.26;57.10;100999.04;105111;1257;71740;-59
2023/12/19 07:44:02;;;;;;;3.20;1.70;;;;;;;8.27;57.24;100995.38;105119;1256;69097;-60
2023/12/19 07:46:30;;;;;;;2.10;1.70;;;;;;;8.28;57.18;101000.05;105221;1257;69197;-59
2023/12/19 07:48:58;;;;;;;2.70;1.60;;;;;;;8.30;57.13;100998.46;105175;1256;74105;-60
2023/12/19 07:51:27;;;;;;;2.80;1.60;;;;;;;8.31;57.07;100990.77;105108;1260;82770;-60
2023/12/19 07:53:55;;;;;;;3.00;1.90;;;;;;;8.33;57.19;100986.02;105183;1256;71930;-60
2023/12/19 07:56:23;;;;;;;2.70;1.20;;;;;;;8.34;57.38;100982.02;105151;1257;69191;-60
2023/12/19 07:58:52;;;;;;;3.90;2.20;;;;;;;8.36;57.59;100988.77;105231;1257;69181;-60
2023/12/19 08:01:21;;;;;;;3.00;1.70;;;;;;;8.37;57.50;100993.96;105230;1257;73935;-60
2023/12/19 08:03:49;;;;;;;3.00;2.10;;;;;;;8.40;57.53;100992.89;105199;1260;81641;-59
2023/12/19 08:06:18;;;;;;;2.10;1.40;;;;;;;8.43;57.38;100981.52;105147;1260;71727;-60
2023/12/19 08:08:49;;;;;;;2.80;1.80;;;;;;;8.46;57.64;100971.36;105163;1256;69198;-60
2023/12/19 08:11:18;;;;;;;2.60;1.50;;;;;;;8.50;57.34;100972.85;105172;1256;69107;-60
2023/12/19 08:13:50;;;;;;;2.20;1.50;;;;;;;8.53;57.42;100963.91;105208;1257;74958;-60
2023/12/19 08:16:19;;;;;;;4.50;1.60;;;;;;;8.57;57.36;100954.95;105151;1261;81216;-60
2023/12/19 08:18:50;;;;;;;3.90;1.70;;;;;;;8.61;57.33;100946.00;105274;1256;70547;-60
2023/12/19 08:21:19;;;;;;;3.00;2.00;;;;;;;8.63;57.00;100942.83;105221;1256;69167;-60
2023/12/19 08:23:48;;;;;;;3.60;1.90;;;;;;;8.66;57.17;100932.14;105279;1256;69171;-59
2023/12/19 08:26:17;;;;;;;4.50;2.10;;;;;;;8.67;56.99;100924.79;105242;1256;74227;-59
2023/12/19 08:28:45;;;;;;;4.20;2.10;;;;;;;8.68;56.93;100912.91;105230;1260;81472;-60
2023/12/19 08:31:14;;;;;;;5.70;2.20;;;;;;;8.70;56.99;100898.23;105149;1257;72180;-60
2023/12/19 08:33:43;;;;;;;3.50;1.80;;;;;;;8.73;57.01;100877.27;105167;1257;69075;-60
2023/12/19 08:36:12;;;;;;;5.00;2.00;;;;;;;8.77;56.67;100867.27;105177;1260;69176;-60
2023/12/19 08:39:01;;;;;;;5.60;2.30;;;;;;;8.83;56.99;100852.82;105137;1257;75033;-60
2023/12/19 08:41:30;;;;;;;2.80;1.80;;;;;;;8.90;57.09;100856.49;105178;1257;83732;-60
2023/12/19 08:43:58;;;;;;;3.70;1.90;;;;;;;8.98;57.10;100858.77;105145;1256;71749;-59
2023/12/19 08:46:26;;;;;;;3.60;2.00;;;;;;;9.08;57.54;100862.02;105165;1256;69138;-59
2023/12/19 08:48:54;;;;;;;2.10;1.60;;;;;;;9.20;57.40;100868.17;105133;1259;69211;-60
2023/12/19 08:51:22;;;;;;;3.40;1.60;;;;;;;9.31;57.52;100874.02;105157;1256;74096;-60
2023/12/19 08:53:51;;;;;;;2.80;1.80;;;;;;;9.43;57.50;100881.06;105170;1260;83360;-60
2023/12/19 08:56:19;;;;;;;3.60;1.70;;;;;;;9.56;57.42;100897.48;105127;1257;71744;-60
2023/12/19 08:58:48;;;;;;;5.50;1.80;;;;;;;9.67;57.32;100900.00;105177;1257;69199;-60
2023/12/19 09:01:17;;;;;;;3.10;1.30;;;;;;;9.77;57.24;100894.51;105177;1261;69199;-59
2023/12/19 09:03:46;;;;;;;2.00;1.50;;;;;;;9.86;57.08;100891.66;105202;1257;73702;-60
2023/12/19 09:06:14;;;;;;;2.30;1.50;;;;;;;9.92;56.82;100880.33;105189;1256;82773;-60
2023/12/19 09:08:43;;;;;;;2.20;1.60;;;;;;;9.99;56.29;100877.50;105197;1262;72993;-60
2023/12/19 09:11:11;;;;;;;3.50;1.70;;;;;;;10.09;55.96;100872.37;105096;1258;69118;-60
2023/12/19 09:13:40;;;;;;;2.60;1.60;;;;;;;10.16;55.60;100880.37;105097;1260;69231;-60
2023/12/19 09:16:09;;;;;;;4.90;1.90;;;;;;;10.21;55.23;100874.30;105169;1256;75014;-60
2023/12/19 09:18:37;;;;;;;2.80;1.90;;;;;;;10.23;54.79;100869.54;105147;1261;81569;-60
2023/12/19 09:21:05;;;;;;;3.40;1.50;;;;;;;10.25;54.73;100858.11;105172;1257;73073;-60
2023/12/19 09:23:34;;;;;;;3.20;2.00;;;;;;;10.27;54.50;100855.98;105182;1256;69134;-60
2023/12/19 09:26:04;;;;;;;4.30;1.90;;;;;;;10.26;54.24;100850.23;105160;1257;69196;-60
2023/12/19 09:28:32;;;;;;;5.20;1.70;;;;;;;10.25;53.95;100851.31;105166;1256;74293;-60
2023/12/19 09:31:00;;;;;;;3.20;1.70;;;;;;;10.25;53.83;100850.77;105141;1257;81019;-60
2023/12/19 09:33:29;;;;;;;3.40;1.90;;;;;;;10.27;53.89;100849.36;105183;1261;73059;-59
2023/12/19 09:35:57;;;;;;;4.90;2.60;;;;;;;10.29;54.00;100843.73;105106;1256;69059;-60
2023/12/19 09:38:25;;;;;;;2.20;1.50;;;;;;;10.30;54.04;100837.05;105134;1261;69189;-59
2023/12/19 09:40:53;;;;;;;6.20;2.30;;;;;;;10.30;54.00;100832.35;105140;1256;72732;-60
2023/12/19 09:43:22;;;;;;;6.00;2.20;;;;;;;10.32;53.85;100829.99;105155;1261;82110;-60
2023/12/19 09:45:51;;;;;;;3.40;1.60;;;;;;;10.29;53.46;100822.76;105100;1261;72959;-60
2023/12/19 09:48:20;;;;;;;4.90;2.00;;;;;;;10.27;53.42;100824.37;105193;1261;69154;-60
2023/12/19 09:50:49;;;;;;;9.10;3.90;;;;;;;10.27;53.59;100828.90;105341;1261;69270;-60
2023/12/19 09:53:18;;;;;;;11.00;4.90;;;;;;;10.29;53.62;100828.19;105151;1257;74490;-61
2023/12/19 09:55:47;;;;;;;12.30;5.50;;;;;;;10.29;53.63;100825.23;105300;1257;82857;-59
2023/12/19 09:58:16;;;;;;;4.10;2.30;;;;;;;10.26;53.44;100821.59;105189;1256;71932;-59
2023/12/19 10:00:44;;;;;;;5.10;2.60;;;;;;;10.23;53.36;100818.89;105202;1260;69160;-59
2023/12/19 10:03:13;;;;;;;4.70;2.10;;;;;;;10.23;53.32;100809.45;105146;1256;69560;-59
2023/12/19 10:05:44;;;;;;;10.00;3.10;;;;;;;10.21;53.28;100812.81;105147;1257;74108;-59
2023/12/19 10:08:13;;;;;;;5.70;1.70;;;;;;;10.17;53.10;100809.26;105190;1257;81387;-58
2023/12/19 10:10:51;;;;;;;3.80;1.70;;;;;;;10.14;53.04;100806.03;105146;1257;72567;-59
2023/12/19 10:13:33;;;;;;;11.90;4.60;;;;;;;10.11;53.05;100797.05;105154;1260;69270;-59
2023/12/19 10:16:06;;;;;;;8.60;3.30;;;;;;;10.08;52.95;100789.28;105172;1256;69064;-59
2023/12/19 10:18:59;;;;;;;6.10;2.30;;;;;;;10.07;53.01;100776.23;105135;1260;74134;-59
2023/12/19 10:21:28;;;;;;;4.00;1.90;;;;;;;10.07;52.96;100772.21;105164;1256;81023;-58
2023/12/19 10:24:06;;;;;;;6.70;2.80;;;;;;;10.07;53.06;100765.04;105173;1261;72028;-59
2023/12/19 10:26:35;;;;;;;7.40;2.10;;;;;;;10.07;52.95;100767.14;105169;1257;69186;-59
2023/12/19 10:29:04;;;;;;;6.70;2.70;;;;;;;10.06;53.17;100761.91;105226;1257;69103;-59
2023/12/19 10:31:33;;;;;;;5.20;2.50;;;;;;;10.09;53.12;100753.46;105215;1256;73230;-59
2023/12/19 10:34:04;;;;;;;5.50;2.40;;;;;;;10.14;53.40;100747.39;105199;1260;82179;-59
2023/12/19 10:36:34;;;;;;;7.80;3.40;;;;;;;10.17;53.48;100742.41;105189;1260;72244;-59
2023/12/19 10:39:05;;;;;;;7.70;3.00;;;;;;;10.20;53.57;100738.27;105151;1262;69113;-59
2023/12/19 10:41:37;;;;;;;5.80;2.60;;;;;;;10.23;53.49;100735.73;105176;1256;69145;-59
2023/12/19 10:44:08;;;;;;;8.00;3.30;;;;;;;10.25;53.68;100726.44;105177;1260;72409;-59
2023/12/19 10:46:38;;;;;;;4.10;1.80;;;;;;;10.25;53.50;100716.82;105191;1256;82934;-59
2023/12/19 10:49:06;;;;;;;3.50;1.50;;;;;;;10.26;53.49;100720.11;105111;1257;71099;-59
2023/12/19 10:51:41;;;;;;;4.80;2.20;;;;;;;10.26;53.57;100715.41;105173;1261;69145;-59
2023/12/19 10:54:11;;;;;;;5.20;2.40;;;;;;;10.29;53.54;100712.02;104990;1260;215496;-59
2023/12/19 10:57:02;;;;;;;3.10;1.70;;;;;;;10.32;53.57;100701.11;105184;1256;73595;-59
2023/12/19 10:59:38;;;;;;;2.90;1.80;;;;;;;10.36;53.41;100697.65;105171;1262;83249;-59
2023/12/19 11:02:42;;;;;;;9.30;1.70;;;;;;;10.40;53.20;100696.84;105183;1260;70687;-59
2023/12/19 11:05:39;;;;;;;2.90;1.80;;;;;;;10.41;52.74;100695.20;105131;1256;69119;-59
2023/12/19 11:08:17;;;;;;;5.10;1.80;;;;;;;10.44;52.97;100695.65;105159;1260;69232;-59
2023/12/19 11:10:58;;;;;;;3.30;1.70;;;;;;;10.48;53.15;100697.27;105150;1261;75651;-59
2023/12/19 11:13:27;;;;;;;2.90;1.30;;;;;;;10.48;53.01;100698.84;105123;1261;81517;-59
2023/12/19 11:16:00;;;;;;;4.60;1.90;;;;;;;10.45;52.72;100699.27;105133;1257;72477;-59
2023/12/19 11:18:34;;;;;;;7.40;2.80;;;;;;;10.44;52.83;100697.56;105130;1257;69811;-59
2023/12/19 11:21:06;;;;;;;5.20;2.40;;;;;;;10.44;52.91;100693.40;105261;1256;69137;-59
2023/12/19 11:23:38;;;;;;;5.30;1.90;;;;;;;10.40;53.03;100683.02;105189;1261;73219;-59
2023/12/19 11:26:17;;;;;;;5.20;1.70;;;;;;;10.36;52.81;100676.70;105276;1262;82577;-59
2023/12/19 11:28:46;;;;;;;3.30;1.80;;;;;;;10.32;52.85;100665.13;105207;1256;72082;-59
2023/12/19 11:31:30;;;;;;;5.20;2.20;;;;;;;10.27;52.79;100668.92;105172;1256;69143;-59
2023/12/19 11:34:20;;;;;;;2.90;1.70;;;;;;;10.20;52.79;100668.27;105169;1257;69198;-59
2023/12/19 11:37:06;;;;;;;4.60;2.50;;;;;;;10.15;52.88;100660.57;105202;1256;75113;-59